Time;durP1;ratioP1;P1;durP2;ratioP2;P2;SDS_P1;SDS_P2;PMS_P1;PMS_P2;Temp;Humidity;BMP_temperature;BMP_pressure;BME280_temperature;BME280_humidity;BME280_pressure;Samples;Min_cycle;Max_cycle;Signal;HPM_P1;HPM_P2
2023/12/04 00:01:35;;;;;;;8.73;6.13;;;;;;;;;;4390272;32;316265;-74
2023/12/04 00:04:02;;;;;;;8.47;7.30;;;;;;;;;;4401960;32;316253;-74
2023/12/04 00:06:29;;;;;;;10.70;7.57;;;;;;;;;;4391659;32;316318;-74
2023/12/04 00:08:56;;;;;;;9.57;7.30;;;;;;;;;;4402803;32;317255;-75
2023/12/04 00:11:23;;;;;;;13.00;7.73;;;;;;;;;;4393439;32;316220;-75
2023/12/04 00:13:50;;;;;;;8.80;6.67;;;;;;;;;;4401883;32;316385;-75
2023/12/04 00:16:17;;;;;;;9.20;7.00;;;;;;;;;;4394525;32;316075;-76
2023/12/04 00:18:45;;;;;;;13.67;7.53;;;;;;;;;;4393508;32;315926;-78
2023/12/04 00:21:13;;;;;;;11.37;7.80;;;;;;;;;;4409514;32;317125;-76
2023/12/04 00:23:40;;;;;;;8.10;7.27;;;;;;;;;;4399088;32;317244;-77
2023/12/04 00:26:07;;;;;;;8.73;6.93;;;;;;;;;;4409154;32;316171;-78
2023/12/04 00:28:37;;;;;;;10.23;6.90;;;;;;;;;;4398568;32;316171;-75
2023/12/04 00:31:04;;;;;;;10.77;6.70;;;;;;;;;;4407225;32;317630;-76
2023/12/04 00:33:32;;;;;;;16.47;7.93;;;;;;;;;;4397258;32;332128;-77
2023/12/04 00:36:00;;;;;;;12.47;7.80;;;;;;;;;;4402858;32;317454;-75
2023/12/04 00:38:27;;;;;;;13.37;6.97;;;;;;;;;;4391966;32;317265;-74
2023/12/04 00:40:56;;;;;;;9.00;6.53;;;;;;;;;;4402591;32;317278;-75
2023/12/04 00:43:24;;;;;;;11.50;7.80;;;;;;;;;;4390858;32;321659;-73
2023/12/04 00:45:50;;;;;;;11.30;6.80;;;;;;;;;;4401505;32;316685;-78
2023/12/04 00:48:17;;;;;;;10.63;6.30;;;;;;;;;;4401211;32;321118;-76
2023/12/04 00:50:44;;;;;;;7.53;6.47;;;;;;;;;;4392403;32;317077;-76
2023/12/04 00:53:13;;;;;;;9.00;7.17;;;;;;;;;;4401989;32;315528;-75
2023/12/04 00:55:40;;;;;;;10.93;7.10;;;;;;;;;;4390225;32;315513;-75
2023/12/04 00:58:07;;;;;;;9.23;6.80;;;;;;;;;;4400418;32;317389;-78
2023/12/04 01:00:34;;;;;;;8.93;7.30;;;;;;;;;;4393561;32;316116;-76
2023/12/04 01:03:01;;;;;;;11.03;7.10;;;;;;;;;;4404408;32;316248;-76
2023/12/04 01:05:28;;;;;;;10.73;7.07;;;;;;;;;;4392901;32;317177;-77
2023/12/04 01:07:55;;;;;;;11.70;6.63;;;;;;;;;;4403286;32;317135;-77
2023/12/04 01:10:23;;;;;;;9.87;7.37;;;;;;;;;;4402229;32;349920;-76
2023/12/04 01:12:50;;;;;;;9.53;7.23;;;;;;;;;;4391399;32;416999;-76
2023/12/04 01:15:17;;;;;;;12.20;7.20;;;;;;;;;;4404320;32;316223;-76
2023/12/04 01:17:44;;;;;;;8.53;6.20;;;;;;;;;;4393587;32;317338;-76
2023/12/04 01:20:13;;;;;;;9.37;6.50;;;;;;;;;;4404084;32;316402;-77
2023/12/04 01:22:40;;;;;;;9.77;6.10;;;;;;;;;;4391412;32;349815;-75
2023/12/04 01:25:08;;;;;;;10.13;6.37;;;;;;;;;;4404020;32;315491;-76
2023/12/04 01:27:37;;;;;;;9.20;6.37;;;;;;;;;;4392662;32;338957;-75
2023/12/04 01:30:05;;;;;;;9.97;6.87;;;;;;;;;;4404058;32;316245;-75
2023/12/04 01:32:32;;;;;;;9.43;6.20;;;;;;;;;;4393682;32;316358;-76
2023/12/04 01:34:59;;;;;;;10.77;6.60;;;;;;;;;;4403805;32;316031;-75
2023/12/04 01:37:26;;;;;;;9.47;6.30;;;;;;;;;;4392631;32;317332;-75
2023/12/04 01:39:54;;;;;;;11.33;7.03;;;;;;;;;;4403659;32;316493;-74
2023/12/04 01:42:21;;;;;;;9.37;6.33;;;;;;;;;;4402232;32;317132;-76
2023/12/04 01:44:49;;;;;;;7.80;6.50;;;;;;;;;;4389502;32;416878;-76
2023/12/04 01:47:16;;;;;;;9.40;5.87;;;;;;;;;;4403836;32;316176;-75
2023/12/04 01:49:43;;;;;;;9.90;6.07;;;;;;;;;;4392181;32;316129;-75
2023/12/04 01:52:11;;;;;;;6.23;5.23;;;;;;;;;;4403372;32;315742;-74
2023/12/04 01:54:38;;;;;;;13.30;7.07;;;;;;;;;;4392193;32;316082;-75
2023/12/04 01:57:07;;;;;;;11.57;7.27;;;;;;;;;;4403254;32;317450;-74
2023/12/04 01:59:34;;;;;;;14.30;9.33;;;;;;;;;;4392049;32;317496;-74
2023/12/04 02:02:03;;;;;;;16.73;8.53;;;;;;;;;;4402297;32;316750;-75
2023/12/04 02:04:32;;;;;;;10.27;7.13;;;;;;;;;;4391971;32;317446;-73
2023/12/04 02:06:59;;;;;;;13.40;8.53;;;;;;;;;;4402803;32;317750;-75
2023/12/04 02:09:26;;;;;;;16.63;9.67;;;;;;;;;;4391973;32;317309;-73
2023/12/04 02:11:53;;;;;;;13.27;8.63;;;;;;;;;;4402461;32;317360;-76
2023/12/04 02:14:20;;;;;;;11.97;8.60;;;;;;;;;;4403222;32;317202;-75
2023/12/04 02:16:49;;;;;;;13.07;8.47;;;;;;;;;;4392389;32;317500;-75
2023/12/04 02:19:17;;;;;;;17.43;9.23;;;;;;;;;;4393256;32;317559;-75
2023/12/04 02:21:44;;;;;;;12.37;8.57;;;;;;;;;;4392790;32;317217;-75
2023/12/04 02:24:13;;;;;;;14.33;8.70;;;;;;;;;;4402912;32;317313;-75
2023/12/04 02:26:48;;;;;;;11.30;8.27;;;;;;;;;;4391096;32;317272;-75
2023/12/04 02:29:29;;;;;;;11.83;8.17;;;;;;;;;;4401434;32;329230;-77
2023/12/04 02:31:58;;;;;;;12.23;8.50;;;;;;;;;;4390216;32;416503;-76
2023/12/04 02:34:25;;;;;;;11.90;8.43;;;;;;;;;;4391851;32;317291;-76
2023/12/04 02:36:53;;;;;;;10.23;7.87;;;;;;;;;;4402935;32;317409;-75
2023/12/04 02:39:22;;;;;;;15.50;8.40;;;;;;;;;;4402835;32;317339;-75
2023/12/04 02:41:49;;;;;;;11.47;8.53;;;;;;;;;;4388347;32;416440;-75
2023/12/04 02:44:16;;;;;;;14.03;8.67;;;;;;;;;;4402688;32;317350;-74
2023/12/04 02:46:44;;;;;;;11.63;7.03;;;;;;;;;;4392474;32;317457;-75
2023/12/04 02:49:11;;;;;;;8.67;6.63;;;;;;;;;;4401578;32;317512;-75
2023/12/04 02:51:38;;;;;;;11.07;7.27;;;;;;;;;;4391054;32;316248;-76
2023/12/04 02:54:04;;;;;;;11.90;8.70;;;;;;;;;;4402558;32;317438;-75
2023/12/04 02:56:33;;;;;;;12.00;7.80;;;;;;;;;;4392248;32;316944;-75
2023/12/04 02:59:00;;;;;;;8.53;6.00;;;;;;;;;;4401055;32;317846;-75
2023/12/04 03:01:27;;;;;;;11.47;6.83;;;;;;;;;;4390697;32;315627;-74
2023/12/04 03:03:54;;;;;;;9.60;7.27;;;;;;;;;;4402016;32;317786;-75
2023/12/04 03:06:21;;;;;;;11.93;7.47;;;;;;;;;;4392454;32;316683;-75
2023/12/04 03:08:48;;;;;;;10.67;7.30;;;;;;;;;;4402337;32;317632;-75
2023/12/04 03:11:15;;;;;;;12.13;7.43;;;;;;;;;;4392373;32;317663;-75
2023/12/04 03:13:43;;;;;;;8.57;6.60;;;;;;;;;;4402327;32;317922;-75
2023/12/04 03:16:16;;;;;;;7.50;6.47;;;;;;;;;;4392359;32;315754;-75
2023/12/04 03:18:43;;;;;;;8.73;6.77;;;;;;;;;;4387858;32;417147;-75
2023/12/04 03:21:10;;;;;;;12.03;6.70;;;;;;;;;;4402105;32;316602;-75
2023/12/04 03:23:37;;;;;;;8.07;6.20;;;;;;;;;;4388654;32;416766;-75
2023/12/04 03:26:04;;;;;;;12.50;6.47;;;;;;;;;;4402265;32;316167;-74
2023/12/04 03:28:31;;;;;;;9.03;6.73;;;;;;;;;;4390557;32;317764;-74
2023/12/04 03:30:59;;;;;;;8.70;6.43;;;;;;;;;;4400862;32;316554;-75
2023/12/04 03:33:26;;;;;;;11.63;7.50;;;;;;;;;;4391908;32;316576;-75
2023/12/04 03:35:53;;;;;;;10.37;6.97;;;;;;;;;;4402168;32;317808;-75
2023/12/04 03:38:20;;;;;;;8.03;5.97;;;;;;;;;;4391500;32;317886;-75
2023/12/04 03:40:47;;;;;;;11.73;7.17;;;;;;;;;;4401877;32;316521;-74
2023/12/04 03:43:14;;;;;;;10.40;7.30;;;;;;;;;;4390867;32;317686;-76
2023/12/04 03:45:41;;;;;;;10.97;6.50;;;;;;;;;;4400803;32;317653;-76
2023/12/04 03:48:10;;;;;;;9.97;6.90;;;;;;;;;;4400728;32;317827;-74
2023/12/04 03:50:37;;;;;;;12.27;7.37;;;;;;;;;;4388925;32;415779;-75
2023/12/04 03:53:03;;;;;;;11.40;9.40;;;;;;;;;;4402039;32;317868;-76
2023/12/04 03:55:30;;;;;;;11.03;8.23;;;;;;;;;;4391569;32;317991;-74
2023/12/04 03:57:59;;;;;;;15.30;9.40;;;;;;;;;;4401809;32;317651;-75
2023/12/04 04:00:26;;;;;;;10.70;8.20;;;;;;;;;;4391433;32;317764;-75
2023/12/04 04:02:52;;;;;;;14.80;10.13;;;;;;;;;;4401731;32;317714;-75
2023/12/04 04:05:21;;;;;;;41.97;20.23;;;;;;;;;;4391519;32;318762;-74
2023/12/04 04:07:48;;;;;;;21.70;13.13;;;;;;;;;;4400437;32;318843;-75
2023/12/04 04:10:15;;;;;;;10.50;7.40;;;;;;;;;;4389073;32;336750;-74
2023/12/04 04:12:42;;;;;;;12.67;7.23;;;;;;;;;;4401783;32;317858;-74
2023/12/04 04:15:10;;;;;;;9.90;7.13;;;;;;;;;;4400848;32;317154;-74
2023/12/04 04:17:36;;;;;;;8.80;7.63;;;;;;;;;;4388781;32;415382;-75
2023/12/04 04:20:04;;;;;;;7.07;5.90;;;;;;;;;;4401698;32;316511;-75
2023/12/04 04:22:34;;;;;;;8.63;6.23;;;;;;;;;;4391020;32;333563;-76
2023/12/04 04:25:01;;;;;;;8.03;6.20;;;;;;;;;;4400525;32;316675;-75
2023/12/04 04:27:28;;;;;;;9.93;7.10;;;;;;;;;;4389229;32;354747;-75
2023/12/04 04:29:55;;;;;;;9.67;6.90;;;;;;;;;;4401621;32;316594;-75
2023/12/04 04:32:21;;;;;;;9.77;6.57;;;;;;;;;;4391505;32;316444;-75
2023/12/04 04:34:48;;;;;;;11.47;7.27;;;;;;;;;;4403104;32;317001;-74
2023/12/04 04:37:15;;;;;;;9.03;6.40;;;;;;;;;;4394314;32;317603;-74
2023/12/04 04:39:44;;;;;;;12.20;7.77;;;;;;;;;;4404442;32;316622;-75
2023/12/04 04:42:11;;;;;;;9.63;7.10;;;;;;;;;;4404617;32;317603;-74
2023/12/04 04:44:38;;;;;;;11.73;7.43;;;;;;;;;;4391432;32;415599;-75
2023/12/04 04:47:05;;;;;;;12.40;7.60;;;;;;;;;;4404518;32;317837;-74
2023/12/04 04:49:32;;;;;;;11.27;8.10;;;;;;;;;;4394395;32;317544;-75
2023/12/04 04:51:59;;;;;;;10.07;8.40;;;;;;;;;;4404371;32;317521;-75
2023/12/04 04:54:26;;;;;;;12.03;8.67;;;;;;;;;;4392195;32;341307;-76
2023/12/04 04:56:57;;;;;;;24.67;13.43;;;;;;;;;;4404280;32;317597;-75
2023/12/04 04:59:24;;;;;;;14.13;10.43;;;;;;;;;;4392658;32;318163;-75
2023/12/04 05:01:51;;;;;;;13.00;9.23;;;;;;;;;;4403861;32;324536;-75
2023/12/04 05:04:18;;;;;;;14.53;9.43;;;;;;;;;;4394151;32;317538;-76
2023/12/04 05:06:45;;;;;;;16.73;8.77;;;;;;;;;;4403786;32;317266;-74
2023/12/04 05:09:12;;;;;;;13.70;9.37;;;;;;;;;;4394190;32;317453;-76
2023/12/04 05:11:39;;;;;;;22.77;8.50;;;;;;;;;;4403719;32;317580;-75
2023/12/04 05:14:07;;;;;;;12.57;8.63;;;;;;;;;;4403993;32;317653;-75
2023/12/04 05:16:34;;;;;;;17.03;8.93;;;;;;;;;;4393712;32;317696;-75
2023/12/04 05:19:01;;;;;;;11.13;7.77;;;;;;;;;;4403532;32;316901;-77
2023/12/04 05:21:28;;;;;;;9.00;7.70;;;;;;;;;;4393340;32;318200;-76
2023/12/04 05:23:55;;;;;;;12.93;7.43;;;;;;;;;;4394859;32;335725;-74
2023/12/04 05:26:22;;;;;;;12.37;8.53;;;;;;;;;;4392586;32;317526;-75
2023/12/04 05:28:49;;;;;;;11.47;8.93;;;;;;;;;;4403456;32;317488;-75
2023/12/04 05:31:19;;;;;;;14.00;9.20;;;;;;;;;;4393027;32;316878;-76
2023/12/04 05:33:45;;;;;;;13.63;8.60;;;;;;;;;;4403133;32;317594;-75
2023/12/04 05:36:13;;;;;;;13.80;9.27;;;;;;;;;;4393303;32;317313;-74
2023/12/04 05:38:43;;;;;;;12.33;8.37;;;;;;;;;;4403299;32;317094;-74
2023/12/04 05:41:10;;;;;;;13.20;8.90;;;;;;;;;;4402650;32;317125;-74
2023/12/04 05:43:39;;;;;;;16.07;10.00;;;;;;;;;;4389621;32;418213;-75
2023/12/04 05:46:06;;;;;;;20.70;10.47;;;;;;;;;;4401779;32;317978;-75
2023/12/04 05:48:35;;;;;;;16.27;11.57;;;;;;;;;;4391133;32;318633;-75
2023/12/04 05:51:02;;;;;;;20.70;11.50;;;;;;;;;;4403074;32;318134;-76
2023/12/04 05:53:30;;;;;;;16.87;10.27;;;;;;;;;;4379285;32;318566;-77
2023/12/04 05:55:57;;;;;;;14.03;9.07;;;;;;;;;;4403101;32;319166;-75
2023/12/04 05:58:23;;;;;;;11.50;8.37;;;;;;;;;;4392643;32;316779;-78
2023/12/04 06:00:53;;;;;;;20.07;9.30;;;;;;;;;;4402933;32;317588;-75
2023/12/04 06:03:22;;;;;;;10.77;8.27;;;;;;;;;;4391341;32;317476;-75
2023/12/04 06:05:51;;;;;;;11.07;8.23;;;;;;;;;;4403000;32;317560;-76
2023/12/04 06:08:18;;;;;;;12.10;9.27;;;;;;;;;;4392585;32;317744;-75
2023/12/04 06:10:45;;;;;;;23.20;12.77;;;;;;;;;;4402482;32;317645;-76
2023/12/04 06:13:12;;;;;;;25.20;14.43;;;;;;;;;;4392251;32;319063;-73
2023/12/04 06:15:39;;;;;;;24.53;14.93;;;;;;;;;;4402252;32;318734;-77
2023/12/04 06:18:06;;;;;;;21.57;14.17;;;;;;;;;;4402772;32;318668;-74
2023/12/04 06:20:33;;;;;;;20.53;13.03;;;;;;;;;;4392168;32;318461;-76
2023/12/04 06:23:02;;;;;;;20.33;14.87;;;;;;;;;;4402723;32;318587;-76
2023/12/04 06:25:29;;;;;;;23.53;15.23;;;;;;;;;;4392551;32;318672;-76
2023/12/04 06:27:57;;;;;;;33.17;17.03;;;;;;;;;;4402925;32;319168;-76
2023/12/04 06:30:25;;;;;;;18.00;12.47;;;;;;;;;;4392335;32;318563;-75
2023/12/04 06:32:52;;;;;;;20.03;13.60;;;;;;;;;;4402523;32;318849;-76
2023/12/04 06:35:20;;;;;;;437.70;117.27;;;;;;;;;;4390158;32;346550;-76
2023/12/04 06:37:49;;;;;;;38.37;19.40;;;;;;;;;;4402387;32;320851;-76
2023/12/04 06:40:18;;;;;;;37.23;16.83;;;;;;;;;;4392037;32;318590;-75
2023/12/04 06:42:45;;;;;;;29.20;15.50;;;;;;;;;;4400978;32;318924;-76
2023/12/04 06:45:14;;;;;;;28.60;15.23;;;;;;;;;;4392064;32;318896;-75
2023/12/04 06:47:44;;;;;;;17.03;10.80;;;;;;;;;;4402298;32;318406;-76
2023/12/04 06:50:11;;;;;;;16.07;11.10;;;;;;;;;;4402237;32;318392;-77
2023/12/04 06:52:38;;;;;;;13.80;8.93;;;;;;;;;;4388686;32;419315;-78
2023/12/04 06:55:05;;;;;;;14.10;9.67;;;;;;;;;;4402161;32;317611;-75
2023/12/04 06:57:34;;;;;;;20.17;11.80;;;;;;;;;;4390602;32;317003;-76
2023/12/04 07:00:01;;;;;;;23.17;13.10;;;;;;;;;;4402034;32;318499;-76
2023/12/04 07:02:30;;;;;;;52.30;35.77;;;;;;;;;;4391489;32;318704;-77
2023/12/04 07:04:57;;;;;;;17.53;11.97;;;;;;;;;;4402647;32;318618;-79
2023/12/04 07:07:25;;;;;;;14.50;10.50;;;;;;;;;;4391861;32;318568;-78
2023/12/04 07:09:52;;;;;;;13.90;9.00;;;;;;;;;;4404759;32;318769;-77
2023/12/04 07:12:20;;;;;;;25.40;16.27;;;;;;;;;;4392943;32;317871;-76
2023/12/04 07:14:48;;;;;;;16.90;10.07;;;;;;;;;;4403389;32;318627;-77
2023/12/04 07:17:15;;;;;;;21.40;11.10;;;;;;;;;;4391564;32;345520;-77
2023/12/04 07:19:42;;;;;;;20.70;11.27;;;;;;;;;;4404899;32;318766;-79
2023/12/04 07:22:11;;;;;;;22.60;12.53;;;;;;;;;;4399296;32;357965;-76
2023/12/04 07:24:38;;;;;;;22.67;11.83;;;;;;;;;;4387742;32;419468;-77
2023/12/04 07:27:05;;;;;;;16.50;9.93;;;;;;;;;;4401359;32;318190;-79
2023/12/04 07:29:32;;;;;;;15.63;10.13;;;;;;;;;;4390337;32;317589;-77
2023/12/04 07:32:00;;;;;;;18.77;10.50;;;;;;;;;;4400583;32;355773;-78
2023/12/04 07:34:28;;;;;;;13.67;8.83;;;;;;;;;;4391763;32;318552;-79
2023/12/04 07:36:55;;;;;;;13.93;8.27;;;;;;;;;;4401780;32;317744;-79
2023/12/04 07:39:22;;;;;;;13.23;8.63;;;;;;;;;;4391922;32;317359;-79
2023/12/04 07:41:48;;;;;;;11.40;8.00;;;;;;;;;;4402530;32;317717;-80
2023/12/04 07:44:16;;;;;;;11.90;8.70;;;;;;;;;;4390494;32;317810;-76
2023/12/04 07:46:42;;;;;;;19.03;11.93;;;;;;;;;;4401690;32;317657;-79
2023/12/04 07:49:11;;;;;;;12.83;10.20;;;;;;;;;;4400865;32;318538;-79
2023/12/04 07:51:38;;;;;;;15.50;10.40;;;;;;;;;;4388340;32;417432;-80
2023/12/04 07:54:05;;;;;;;12.43;7.50;;;;;;;;;;4402279;32;318635;-80
2023/12/04 07:56:32;;;;;;;14.07;10.40;;;;;;;;;;4392177;32;317736;-78
2023/12/04 07:58:59;;;;;;;9.13;7.03;;;;;;;;;;4401690;32;318410;-79
2023/12/04 08:01:26;;;;;;;11.50;7.97;;;;;;;;;;4391630;32;316555;-79
2023/12/04 08:03:53;;;;;;;13.20;8.00;;;;;;;;;;4401509;32;317772;-79
2023/12/04 08:06:20;;;;;;;18.90;5.93;;;;;;;;;;4391396;32;317480;-81
2023/12/04 08:08:47;;;;;;;13.93;7.87;;;;;;;;;;4402188;32;317085;-79
2023/12/04 08:11:14;;;;;;;10.70;7.90;;;;;;;;;;4394539;32;317418;-79
2023/12/04 08:13:41;;;;;;;13.00;8.20;;;;;;;;;;4404867;32;317168;-80
2023/12/04 08:16:15;;;;;;;15.30;8.13;;;;;;;;;;4404945;32;317110;-79
2023/12/04 08:18:42;;;;;;;9.30;6.40;;;;;;;;;;4392234;32;416559;-80
2023/12/04 08:21:09;;;;;;;9.87;7.43;;;;;;;;;;4407222;32;316381;-78
2023/12/04 08:23:37;;;;;;;16.67;7.43;;;;;;;;;;4397514;32;316293;-78
2023/12/04 08:26:05;;;;;;;15.27;7.43;;;;;;;;;;4405749;32;317495;-78
2023/12/04 08:28:32;;;;;;;14.60;8.00;;;;;;;;;;4396041;32;317407;-78
2023/12/04 08:30:58;;;;;;;16.63;10.10;;;;;;;;;;4405346;32;317529;-79
2023/12/04 08:33:25;;;;;;;10.00;7.10;;;;;;;;;;4393622;32;318587;-78
2023/12/04 08:35:52;;;;;;;14.47;8.90;;;;;;;;;;4403252;32;317673;-79
2023/12/04 08:38:19;;;;;;;14.03;8.20;;;;;;;;;;4393525;32;317387;-78
2023/12/04 08:40:48;;;;;;;9.67;7.20;;;;;;;;;;4404235;32;317693;-79
2023/12/04 08:43:15;;;;;;;10.30;7.00;;;;;;;;;;4394711;32;316625;-79
2023/12/04 08:45:42;;;;;;;15.53;9.57;;;;;;;;;;4404800;32;317476;-80
2023/12/04 08:48:10;;;;;;;13.47;8.67;;;;;;;;;;4404353;32;317570;-79
2023/12/04 08:50:37;;;;;;;657.27;294.40;;;;;;;;;;4391038;32;416454;-78
2023/12/04 08:53:04;;;;;;;73.47;37.27;;;;;;;;;;4402919;32;320371;-79
2023/12/04 08:55:31;;;;;;;30.10;17.57;;;;;;;;;;4392497;32;318570;-78
2023/12/04 08:58:00;;;;;;;27.43;15.73;;;;;;;;;;4402831;32;323281;-78
2023/12/04 09:00:27;;;;;;;19.73;12.27;;;;;;;;;;4392293;32;318381;-78
2023/12/04 09:02:54;;;;;;;13.07;8.03;;;;;;;;;;4402150;32;339559;-78
2023/12/04 09:05:23;;;;;;;11.50;8.43;;;;;;;;;;4392727;32;317412;-80
2023/12/04 09:07:50;;;;;;;21.77;10.67;;;;;;;;;;4403960;32;317426;-78
2023/12/04 09:10:17;;;;;;;11.13;7.57;;;;;;;;;;4393239;32;318375;-76
2023/12/04 09:12:45;;;;;;;14.47;9.93;;;;;;;;;;4402902;32;318047;-78
2023/12/04 09:15:13;;;;;;;45.97;23.30;;;;;;;;;;4393924;32;317761;-76
2023/12/04 09:17:40;;;;;;;41.03;21.37;;;;;;;;;;4402781;32;318726;-78
2023/12/04 09:20:08;;;;;;;8.40;6.60;;;;;;;;;;4401525;32;351920;-79
2023/12/04 09:22:38;;;;;;;11.90;7.73;;;;;;;;;;4392297;32;316470;-78
2023/12/04 09:25:06;;;;;;;12.60;8.10;;;;;;;;;;4402426;32;317585;-80
2023/12/04 09:27:33;;;;;;;11.60;7.43;;;;;;;;;;4392272;32;316833;-78
2023/12/04 09:30:00;;;;;;;11.87;8.27;;;;;;;;;;4403498;32;316865;-79
2023/12/04 09:32:28;;;;;;;9.00;5.77;;;;;;;;;;4392370;32;317498;-78
2023/12/04 09:34:55;;;;;;;12.87;7.37;;;;;;;;;;4403536;32;316458;-78
2023/12/04 09:37:22;;;;;;;12.87;8.00;;;;;;;;;;4393370;32;317410;-78
2023/12/04 09:39:50;;;;;;;9.93;7.60;;;;;;;;;;4403399;32;317447;-78
2023/12/04 09:42:19;;;;;;;18.30;9.60;;;;;;;;;;4391268;32;316459;-76
2023/12/04 09:44:48;;;;;;;14.97;8.70;;;;;;;;;;4403066;32;317613;-77
2023/12/04 09:47:17;;;;;;;11.97;9.00;;;;;;;;;;4390494;32;317262;-77
2023/12/04 09:49:46;;;;;;;9.30;6.80;;;;;;;;;;4403035;32;316929;-78
2023/12/04 09:52:14;;;;;;;10.53;6.80;;;;;;;;;;4392255;32;316551;-75
2023/12/04 09:54:41;;;;;;;10.13;7.17;;;;;;;;;;4401989;32;316869;-77
2023/12/04 09:57:09;;;;;;;13.77;6.73;;;;;;;;;;4401792;32;343733;-78
2023/12/04 09:59:37;;;;;;;12.00;7.30;;;;;;;;;;4388108;32;417736;-79
2023/12/04 10:02:06;;;;;;;10.70;7.53;;;;;;;;;;4402587;32;317627;-79
2023/12/04 10:04:33;;;;;;;8.20;6.10;;;;;;;;;;4391253;32;317840;-79
2023/12/04 10:07:01;;;;;;;10.40;7.40;;;;;;;;;;4402328;32;315724;-73
2023/12/04 10:09:29;;;;;;;10.00;6.30;;;;;;;;;;4392026;32;317019;-78
2023/12/04 10:11:57;;;;;;;13.37;8.33;;;;;;;;;;4402610;32;316487;-78
2023/12/04 10:14:25;;;;;;;12.13;7.07;;;;;;;;;;4390635;32;318308;-77
2023/12/04 10:16:53;;;;;;;13.90;8.27;;;;;;;;;;4402632;32;317423;-80
2023/12/04 10:19:22;;;;;;;10.80;7.70;;;;;;;;;;4391648;32;317334;-79
2023/12/04 10:21:51;;;;;;;10.33;7.67;;;;;;;;;;4401391;32;317259;-79
2023/12/04 10:24:32;;;;;;;7.97;5.57;;;;;;;;;;4390308;32;341846;-77
2023/12/04 10:26:59;;;;;;;8.83;6.07;;;;;;;;;;4401262;32;315633;-78
2023/12/04 10:29:29;;;;;;;10.00;5.87;;;;;;;;;;4392506;32;316149;-78
2023/12/04 10:31:59;;;;;;;9.60;6.40;;;;;;;;;;4400527;32;317311;-78
2023/12/04 10:34:27;;;;;;;14.80;8.53;;;;;;;;;;4392052;32;316147;-77
2023/12/04 10:36:54;;;;;;;9.23;7.27;;;;;;;;;;4400839;32;316605;-78
2023/12/04 10:39:22;;;;;;;9.60;7.00;;;;;;;;;;4402340;32;316386;-78
2023/12/04 10:42:02;;;;;;;12.10;7.10;;;;;;;;;;4409283;32;316234;-78
2023/12/04 10:44:29;;;;;;;7.47;5.83;;;;;;;;;;4400838;32;317133;-78
2023/12/04 10:46:59;;;;;;;7.20;5.80;;;;;;;;;;4391420;32;317734;-77
2023/12/04 10:49:28;;;;;;;13.63;7.90;;;;;;;;;;4401390;32;337682;-77
2023/12/04 10:51:57;;;;;;;12.07;7.30;;;;;;;;;;4391797;32;318564;-78
2023/12/04 10:54:24;;;;;;;12.10;6.67;;;;;;;;;;4400839;32;317802;-77
2023/12/04 10:56:53;;;;;;;8.57;6.07;;;;;;;;;;4391603;32;318517;-77
2023/12/04 10:59:26;;;;;;;22.77;15.43;;;;;;;;;;4402067;32;317339;-80
2023/12/04 11:01:55;;;;;;;12.67;8.40;;;;;;;;;;4391326;32;320445;-78
2023/12/04 11:04:26;;;;;;;7.50;5.17;;;;;;;;;;4380730;32;317637;-78
2023/12/04 11:06:55;;;;;;;19.57;13.73;;;;;;;;;;4389645;32;317309;-76
2023/12/04 11:09:26;;;;;;;7.13;5.43;;;;;;;;;;4400865;32;319392;-77
2023/12/04 11:11:58;;;;;;;12.67;6.23;;;;;;;;;;4391314;32;317584;-76
2023/12/04 11:14:32;;;;;;;7.23;5.23;;;;;;;;;;4400294;32;317668;-77
2023/12/04 11:17:06;;;;;;;7.53;5.70;;;;;;;;;;4388747;32;316522;-77
2023/12/04 11:19:45;;;;;;;11.67;7.70;;;;;;;;;;4401576;32;316558;-78
2023/12/04 11:22:15;;;;;;;17.53;9.90;;;;;;;;;;4388018;32;417250;-79
2023/12/04 11:24:42;;;;;;;58.67;35.37;;;;;;;;;;4400097;32;317857;-77
2023/12/04 11:27:10;;;;;;;169.27;77.17;;;;;;;;;;4366883;32;418541;-79
2023/12/04 11:29:41;;;;;;;66.60;30.27;;;;;;;;;;4401261;32;319839;-77
2023/12/04 11:32:14;;;;;;;15.27;10.13;;;;;;;;;;4388168;32;419840;-78
2023/12/04 11:34:48;;;;;;;17.37;8.67;;;;;;;;;;4399605;32;339097;-77
2023/12/04 11:37:16;;;;;;;19.03;8.63;;;;;;;;;;4386995;32;417461;-78
2023/12/04 11:39:43;;;;;;;11.67;7.43;;;;;;;;;;4401466;32;318478;-79
2023/12/04 11:42:12;;;;;;;10.77;6.97;;;;;;;;;;4388099;32;417393;-78
2023/12/04 11:44:42;;;;;;;9.10;6.80;;;;;;;;;;4400897;32;317476;-78
2023/12/04 11:47:09;;;;;;;7.67;6.33;;;;;;;;;;4387487;32;415402;-77
2023/12/04 11:49:36;;;;;;;11.57;5.83;;;;;;;;;;4401682;32;316252;-78
2023/12/04 11:52:05;;;;;;;8.47;6.57;;;;;;;;;;4390903;32;316832;-77
2023/12/04 11:54:57;;;;;;;13.00;9.10;;;;;;;;;;4401223;32;316426;-79
2023/12/04 11:57:25;;;;;;;80.63;38.57;;;;;;;;;;4388282;32;416227;-79
2023/12/04 12:00:14;;;;;;;15.77;8.37;;;;;;;;;;4389284;32;317959;-76
2023/12/04 12:02:42;;;;;;;13.03;7.30;;;;;;;;;;4399854;32;317298;-79
2023/12/04 12:05:12;;;;;;;173.30;115.33;;;;;;;;;;4386729;32;416409;-79
2023/12/04 12:07:40;;;;;;;11.33;9.50;;;;;;;;;;4400444;32;320100;-78
2023/12/04 12:10:07;;;;;;;16.73;8.70;;;;;;;;;;4389316;32;320182;-78
2023/12/04 12:12:36;;;;;;;15.53;8.47;;;;;;;;;;4399751;32;317353;-78
2023/12/04 12:15:04;;;;;;;12.37;7.63;;;;;;;;;;4390340;32;317605;-80
2023/12/04 12:17:32;;;;;;;11.97;7.80;;;;;;;;;;4400496;32;316731;-78
2023/12/04 12:19:59;;;;;;;8.77;6.70;;;;;;;;;;4390055;32;325047;-76
2023/12/04 12:22:26;;;;;;;14.63;7.77;;;;;;;;;;4398807;32;316275;-80
2023/12/04 12:24:53;;;;;;;12.33;7.63;;;;;;;;;;4390143;32;316680;-78
2023/12/04 12:27:26;;;;;;;13.47;8.80;;;;;;;;;;4401543;32;317372;-80
2023/12/04 12:29:53;;;;;;;11.13;8.57;;;;;;;;;;4389855;32;317443;-80
2023/12/04 12:32:22;;;;;;;13.63;9.37;;;;;;;;;;4400303;32;317528;-79
2023/12/04 12:34:49;;;;;;;16.83;9.83;;;;;;;;;;4390935;32;317441;-78
2023/12/04 12:37:17;;;;;;;23.57;12.67;;;;;;;;;;4401268;32;317299;-80
2023/12/04 12:39:44;;;;;;;18.50;9.47;;;;;;;;;;4390817;32;318556;-78
2023/12/04 12:42:11;;;;;;;15.07;10.63;;;;;;;;;;4401256;32;317511;-80
2023/12/04 12:44:42;;;;;;;12.00;7.90;;;;;;;;;;4394496;32;318339;-80
2023/12/04 12:47:09;;;;;;;25.97;15.53;;;;;;;;;;4388670;32;418111;-80
2023/12/04 12:49:39;;;;;;;133.97;56.13;;;;;;;;;;4401241;32;317667;-80
2023/12/04 12:52:08;;;;;;;16.13;9.33;;;;;;;;;;4391014;32;319436;-79
2023/12/04 12:54:37;;;;;;;28.33;14.40;;;;;;;;;;4400995;32;316725;-80
2023/12/04 12:57:04;;;;;;;17.57;10.73;;;;;;;;;;4384203;32;324339;-79
2023/12/04 12:59:31;;;;;;;37.87;19.30;;;;;;;;;;4401654;32;319669;-79
2023/12/04 13:02:00;;;;;;;18.30;9.83;;;;;;;;;;4384442;32;317739;-79
2023/12/04 13:04:27;;;;;;;18.87;7.40;;;;;;;;;;4402866;32;350017;-79
2023/12/04 13:06:55;;;;;;;28.90;11.97;;;;;;;;;;4392485;32;317367;-78
2023/12/04 13:09:22;;;;;;;24.63;11.50;;;;;;;;;;4403556;32;318375;-81
2023/12/04 13:11:51;;;;;;;12.47;8.13;;;;;;;;;;4378832;32;317447;-80
2023/12/04 13:14:21;;;;;;;11.90;7.70;;;;;;;;;;4403612;32;317406;-78
2023/12/04 13:16:49;;;;;;;11.33;7.00;;;;;;;;;;4392410;32;316738;-81
2023/12/04 13:19:17;;;;;;;12.23;6.63;;;;;;;;;;4403876;32;317479;-79
2023/12/04 13:21:44;;;;;;;12.20;6.33;;;;;;;;;;4394048;32;317231;-78
2023/12/04 13:24:13;;;;;;;12.77;8.50;;;;;;;;;;4402594;32;317545;-80
2023/12/04 13:26:43;;;;;;;16.73;8.43;;;;;;;;;;4381406;32;352376;-78
2023/12/04 13:29:10;;;;;;;10.90;6.67;;;;;;;;;;4389135;32;417208;-78
2023/12/04 13:31:39;;;;;;;10.90;7.57;;;;;;;;;;4403949;32;317382;-79
2023/12/04 13:34:06;;;;;;;8.80;6.20;;;;;;;;;;4393606;32;317244;-79
2023/12/04 13:36:33;;;;;;;16.13;8.10;;;;;;;;;;4403425;32;315467;-80
2023/12/04 13:39:00;;;;;;;24.50;10.80;;;;;;;;;;4392255;32;317283;-79
2023/12/04 13:44:15;;;;;;;24.90;12.93;;;;;;;;;;4390404;32;389164;-80
2023/12/04 13:46:42;;;;;;;12.43;8.67;;;;;;;;;;4403501;32;318329;-78
2023/12/04 13:49:09;;;;;;;13.27;9.10;;;;;;;;;;4390567;32;418246;-79
2023/12/04 13:51:40;;;;;;;12.83;9.30;;;;;;;;;;4403532;32;316766;-81
2023/12/04 13:54:20;;;;;;;15.67;8.50;;;;;;;;;;4393037;32;317406;-79
2023/12/04 13:56:53;;;;;;;25.33;13.90;;;;;;;;;;4392283;32;317340;-79
2023/12/04 13:59:21;;;;;;;27.27;16.20;;;;;;;;;;4403281;32;318283;-79
2023/12/04 14:01:51;;;;;;;29.17;17.00;;;;;;;;;;4392528;32;318214;-79
2023/12/04 14:04:18;;;;;;;37.53;19.13;;;;;;;;;;4403540;32;318599;-80
2023/12/04 14:06:45;;;;;;;13.53;8.53;;;;;;;;;;4393347;32;318289;-78
2023/12/04 14:09:14;;;;;;;25.23;9.13;;;;;;;;;;4403238;32;317242;-77
2023/12/04 14:11:44;;;;;;;66.77;34.30;;;;;;;;;;4402200;32;317076;-78
2023/12/04 14:14:13;;;;;;;24.63;13.57;;;;;;;;;;4389088;32;417643;-79
2023/12/04 14:16:41;;;;;;;41.23;22.10;;;;;;;;;;4403054;32;318445;-80
2023/12/04 14:19:09;;;;;;;18.67;12.50;;;;;;;;;;4389749;32;417055;-80
2023/12/04 14:21:36;;;;;;;26.80;13.93;;;;;;;;;;4403198;32;318773;-80
2023/12/04 14:24:03;;;;;;;24.13;12.73;;;;;;;;;;4391330;32;318440;-80